createdAt,value
2019-03-28T00:00:57.989Z,7.88
2019-03-28T00:04:03.902Z,7.91
2019-03-28T00:07:09.913Z,7.94
2019-03-28T00:10:17.402Z,7.90
2019-03-28T00:13:23.416Z,7.88
2019-03-28T00:16:29.387Z,7.91
2019-03-28T00:19:35.411Z,7.91
2019-03-28T00:22:53.308Z,7.87
2019-03-28T00:26:00.497Z,7.85
2019-03-28T00:29:06.432Z,7.84
2019-03-28T00:32:12.473Z,7.86
2019-03-28T00:35:18.438Z,7.86
2019-03-28T00:38:25.157Z,7.83
2019-03-28T00:41:31.126Z,7.87
2019-03-28T00:44:37.112Z,7.85
2019-03-28T00:47:43.037Z,7.83
2019-03-28T00:50:48.982Z,7.89
2019-03-28T00:53:54.962Z,7.82
2019-03-28T00:57:01.790Z,7.83
2019-03-28T01:00:09.046Z,7.79
2019-03-28T01:03:14.976Z,7.81
2019-03-28T01:06:21.048Z,7.85
2019-03-28T01:09:27.177Z,7.90
2019-03-28T01:12:33.102Z,7.90
2019-03-28T01:15:39.046Z,7.92
2019-03-28T01:18:45.208Z,7.90
2019-03-28T01:21:51.511Z,7.99
2019-03-28T01:24:57.866Z,7.99
2019-03-28T01:28:04.011Z,8.06
2019-03-28T01:31:10.338Z,8.15
2019-03-28T01:34:16.350Z,8.18
2019-03-28T01:37:22.291Z,8.18
2019-03-28T01:40:30.433Z,8.15
2019-03-28T01:43:36.051Z,8.16
2019-03-28T01:46:43.862Z,8.17
2019-03-28T01:49:50.223Z,8.19
2019-03-28T01:52:56.469Z,8.24
2019-03-28T01:56:02.525Z,8.21
2019-03-28T01:59:08.424Z,8.19
2019-03-28T02:02:14.322Z,8.22
2019-03-28T02:05:20.296Z,8.18
2019-03-28T02:08:26.225Z,8.09
2019-03-28T02:11:32.225Z,8.11
2019-03-28T02:14:38.369Z,8.18
2019-03-28T02:17:44.688Z,8.11
2019-03-28T02:20:50.894Z,8.14
2019-03-28T02:23:56.743Z,8.08
2019-03-28T02:27:02.712Z,8.07
2019-03-28T02:30:09.265Z,8.01
2019-03-28T02:33:15.294Z,7.96
2019-03-28T02:36:21.226Z,7.91
2019-03-28T02:39:27.114Z,7.91
2019-03-28T02:42:33.087Z,7.90
2019-03-28T02:45:39.887Z,7.88
2019-03-28T02:48:45.809Z,7.82
2019-03-28T02:51:51.875Z,7.74
2019-03-28T02:54:58.189Z,7.70
2019-03-28T02:58:04.128Z,7.69
2019-03-28T03:01:13.210Z,7.69
2019-03-28T03:04:19.161Z,7.70
2019-03-28T03:07:25.120Z,7.64
2019-03-28T03:10:31.029Z,7.62
2019-03-28T03:13:36.935Z,7.64
2019-03-28T03:16:42.971Z,7.58
2019-03-28T03:19:48.916Z,7.58
2019-03-28T03:22:54.889Z,7.60
2019-03-28T03:26:00.880Z,7.56
2019-03-28T03:29:09.422Z,7.47
2019-03-28T03:32:15.397Z,7.45
2019-03-28T03:35:23.859Z,7.40
2019-03-28T03:38:29.762Z,7.34
2019-03-28T03:41:35.733Z,7.37
2019-03-28T03:44:42.121Z,7.39
2019-03-28T03:47:49.342Z,7.31
2019-03-28T03:50:55.358Z,7.22
2019-03-28T03:54:01.517Z,7.11
2019-03-28T03:57:07.612Z,7.08
2019-03-28T04:00:16.473Z,7.03
2019-03-28T04:03:22.450Z,6.90
2019-03-28T04:06:28.371Z,6.84
2019-03-28T04:09:34.326Z,6.73
2019-03-28T04:12:40.175Z,6.65
2019-03-28T04:15:46.101Z,6.75
2019-03-28T04:18:51.998Z,6.71
2019-03-28T04:21:57.917Z,6.70
2019-03-28T04:25:04.797Z,6.76
2019-03-28T04:28:10.709Z,6.89
2019-03-28T04:31:16.688Z,6.97
2019-03-28T04:34:22.622Z,6.93
2019-03-28T04:37:30.620Z,6.93
2019-03-28T04:40:36.675Z,6.91
2019-03-28T04:43:42.569Z,6.93
2019-03-28T04:46:48.506Z,6.88
2019-03-28T04:49:54.469Z,6.85
2019-03-28T04:53:00.394Z,6.89
2019-03-28T04:56:06.321Z,6.94
2019-03-28T04:59:12.221Z,6.97
2019-03-28T05:02:18.108Z,6.97
2019-03-28T05:05:24.126Z,6.88
2019-03-28T05:08:30.064Z,6.84
2019-03-28T05:11:36.069Z,6.80
2019-03-28T05:14:42.059Z,6.78
2019-03-28T05:17:57.320Z,6.84
2019-03-28T05:21:03.210Z,6.82
2019-03-28T05:24:09.350Z,6.84
2019-03-28T05:27:16.627Z,6.85
2019-03-28T05:30:22.846Z,6.82
2019-03-28T05:33:29.874Z,6.83
2019-03-28T05:36:35.781Z,6.85
2019-03-28T05:39:43.805Z,6.88
2019-03-28T05:42:49.712Z,6.94
2019-03-28T05:45:55.770Z,6.98
2019-03-28T05:49:01.689Z,7.03
2019-03-28T05:52:08.135Z,7.05
2019-03-28T05:55:14.065Z,7.13
2019-03-28T05:58:20.334Z,7.16
2019-03-28T06:01:26.310Z,7.23
2019-03-28T06:04:32.314Z,7.22
2019-03-28T06:07:42.897Z,7.32
2019-03-28T06:10:46.201Z,7.39
2019-03-28T06:13:52.224Z,7.47
2019-03-28T06:16:58.309Z,7.64
2019-03-28T06:20:04.719Z,7.61
2019-03-28T06:23:10.695Z,7.73
2019-03-28T06:26:16.614Z,7.90
2019-03-28T06:29:24.060Z,7.99
2019-03-28T06:32:42.220Z,8.05
2019-03-28T06:35:37.873Z,8.24
2019-03-28T06:38:43.780Z,8.34
2019-03-28T06:41:49.755Z,8.63
2019-03-28T06:44:55.849Z,9.12
2019-03-28T06:48:01.829Z,9.41
2019-03-28T06:51:07.774Z,9.98
2019-03-28T06:54:13.756Z,10.25
2019-03-28T06:57:19.820Z,10.14
2019-03-28T07:00:25.726Z,10.67
2019-03-28T07:03:31.787Z,10.89
2019-03-28T07:06:37.699Z,10.80
2019-03-28T07:09:44.258Z,10.81
2019-03-28T07:12:50.368Z,10.69
2019-03-28T07:15:56.196Z,10.84
2019-03-28T07:19:02.195Z,10.81
2019-03-28T07:22:08.190Z,10.95
2019-03-28T07:25:17.371Z,10.66
2019-03-28T07:28:23.271Z,10.45
2019-03-28T07:31:29.204Z,10.11
2019-03-28T07:34:35.398Z,10.21
2019-03-28T07:37:41.321Z,10.07
2019-03-28T07:40:48.169Z,10.10
2019-03-28T07:43:54.113Z,10.28
2019-03-28T07:47:00.013Z,10.22
2019-03-28T07:50:06.316Z,10.37
2019-03-28T07:53:12.271Z,10.37
2019-03-28T07:56:19.765Z,10.53
2019-03-28T07:59:25.763Z,10.73
2019-03-28T08:02:31.743Z,11.24
2019-03-28T08:05:37.620Z,11.09
2019-03-28T08:08:44.579Z,10.99
2019-03-28T08:11:50.529Z,10.80
2019-03-28T08:14:56.581Z,10.62
2019-03-28T08:18:02.576Z,10.77
2019-03-28T08:21:08.505Z,10.70
2019-03-28T08:24:14.399Z,10.67
2019-03-28T08:27:20.366Z,10.70
2019-03-28T08:30:45.613Z,10.85
2019-03-28T08:33:52.362Z,10.75
2019-03-28T08:36:58.709Z,10.37
2019-03-28T08:40:04.928Z,10.36
2019-03-28T08:43:11.121Z,10.52
2019-03-28T08:46:17.454Z,10.72
2019-03-28T08:49:23.361Z,10.60
2019-03-28T08:52:29.265Z,10.46
2019-03-28T08:55:35.278Z,10.73
2019-03-28T08:58:59.125Z,10.88
2019-03-28T09:02:05.565Z,10.86
2019-03-28T09:05:11.593Z,10.92
2019-03-28T09:08:17.470Z,10.98
2019-03-28T09:11:23.421Z,11.03
2019-03-28T09:14:31.886Z,11.20
2019-03-28T09:17:38.437Z,11.18
2019-03-28T09:20:44.373Z,11.03
2019-03-28T09:23:50.318Z,11.17
2019-03-28T09:26:56.223Z,11.12
2019-03-28T09:30:02.231Z,11.19
2019-03-28T09:33:09.563Z,11.34
2019-03-28T09:36:15.492Z,11.26
2019-03-28T09:39:24.703Z,11.38
2019-03-28T09:42:29.588Z,11.44
2019-03-28T09:45:35.566Z,11.16
2019-03-28T09:48:41.605Z,11.40
2019-03-28T09:51:50.532Z,11.52
2019-03-28T09:54:56.478Z,11.59
2019-03-28T09:58:02.503Z,11.69
2019-03-28T10:01:08.618Z,11.57
2019-03-28T10:04:14.559Z,11.96
2019-03-28T10:07:20.508Z,11.94
2019-03-28T10:10:26.494Z,12.19
2019-03-28T10:13:33.490Z,12.33
2019-03-28T10:16:40.391Z,12.88
2019-03-28T10:19:46.514Z,12.70
2019-03-28T10:22:52.488Z,12.47
2019-03-28T10:25:58.445Z,12.35
2019-03-28T10:29:04.408Z,12.97
2019-03-28T10:32:10.369Z,12.73
2019-03-28T10:35:28.745Z,12.64
2019-03-28T10:38:34.773Z,12.89
2019-03-28T10:41:41.828Z,13.14
2019-03-28T10:44:47.910Z,13.27
2019-03-28T10:47:54.080Z,13.29
2019-03-28T10:51:00.098Z,13.40
2019-03-28T10:54:19.263Z,13.45
2019-03-28T10:57:28.724Z,13.67
2019-03-28T11:00:24.304Z,14.14
2019-03-28T11:03:29.105Z,14.63
2019-03-28T11:06:35.159Z,14.24
2019-03-28T11:09:41.049Z,14.21
2019-03-28T11:12:47.295Z,14.23
2019-03-28T11:15:53.253Z,13.95
2019-03-28T11:18:59.199Z,13.70
2019-03-28T11:22:05.279Z,13.48
2019-03-28T11:25:11.439Z,13.63
2019-03-28T11:28:23.358Z,13.51
2019-03-28T11:31:27.979Z,13.26
2019-03-28T11:34:33.897Z,13.00
2019-03-28T11:37:39.851Z,13.27
2019-03-28T11:40:45.825Z,13.11
2019-03-28T11:43:51.881Z,13.56
2019-03-28T11:46:59.091Z,13.36
2019-03-28T11:50:05.401Z,13.44
2019-03-28T11:53:11.290Z,13.52
2019-03-28T11:56:17.229Z,13.86
2019-03-28T11:59:23.137Z,13.92
2019-03-28T12:02:29.268Z,13.84
2019-03-28T12:05:35.163Z,14.03
2019-03-28T12:08:41.065Z,14.28
2019-03-28T12:11:46.969Z,14.27
2019-03-28T12:14:52.879Z,14.32
2019-03-28T12:17:58.790Z,14.26
2019-03-28T12:21:04.738Z,14.22
2019-03-28T12:24:10.644Z,14.62
2019-03-28T12:27:16.610Z,14.53
2019-03-28T12:30:24.730Z,14.81
2019-03-28T12:33:30.623Z,14.69
2019-03-28T12:36:36.599Z,14.44
2019-03-28T12:39:42.559Z,14.51
2019-03-28T12:42:48.528Z,14.47
2019-03-28T12:45:54.445Z,14.25
2019-03-28T12:49:00.403Z,14.34
2019-03-28T12:52:06.419Z,14.52
2019-03-28T12:55:12.638Z,14.65
2019-03-28T12:58:23.119Z,14.42
2019-03-28T13:01:26.150Z,14.71
2019-03-28T13:04:32.207Z,14.68
2019-03-28T13:07:38.115Z,14.54
2019-03-28T13:10:44.409Z,13.95
2019-03-28T13:14:13.863Z,14.15
2019-03-28T13:17:19.789Z,13.94
2019-03-28T13:20:25.947Z,14.09
2019-03-28T13:23:32.018Z,13.91
2019-03-28T13:26:37.989Z,13.43
2019-03-28T13:29:43.969Z,13.53
2019-03-28T13:32:49.984Z,13.45
2019-03-28T13:35:56.035Z,13.29
2019-03-28T13:39:02.039Z,13.62
2019-03-28T13:42:09.169Z,13.76
2019-03-28T13:45:16.795Z,13.67
2019-03-28T13:48:22.679Z,13.65
2019-03-28T13:51:29.629Z,13.84
2019-03-28T13:54:35.622Z,13.96
2019-03-28T13:57:43.417Z,13.78
2019-03-28T14:00:49.748Z,13.82
2019-03-28T14:03:57.082Z,13.55
2019-03-28T14:07:03.066Z,13.52
2019-03-28T14:10:09.554Z,13.45
2019-03-28T14:13:15.514Z,13.59
2019-03-28T14:16:21.477Z,13.51
2019-03-28T14:19:30.119Z,13.51
2019-03-28T14:22:36.182Z,13.81
2019-03-28T14:25:42.124Z,13.79
2019-03-28T14:28:48.073Z,13.59
2019-03-28T14:31:54.004Z,13.62
2019-03-28T14:34:59.938Z,13.62
2019-03-28T14:38:05.842Z,13.48
2019-03-28T14:41:11.808Z,13.12
2019-03-28T14:44:17.763Z,13.38
2019-03-28T14:47:23.679Z,13.45
2019-03-28T14:50:40.548Z,13.40
2019-03-28T14:53:46.867Z,13.33
2019-03-28T14:56:53.398Z,13.45
2019-03-28T14:59:59.859Z,13.27
2019-03-28T15:03:05.983Z,13.51
2019-03-28T15:06:12.058Z,13.27
2019-03-28T15:09:18.035Z,13.19
2019-03-28T15:12:24.002Z,13.04
2019-03-28T15:15:30.017Z,12.88
2019-03-28T15:18:35.957Z,12.91
2019-03-28T15:21:41.902Z,12.90
2019-03-28T15:24:47.951Z,12.90
2019-03-28T15:27:53.942Z,12.72
2019-03-28T15:31:00.287Z,12.84
2019-03-28T15:34:08.189Z,12.80
2019-03-28T15:37:14.164Z,12.75
2019-03-28T15:40:20.172Z,12.65
2019-03-28T15:43:26.200Z,12.63
2019-03-28T15:46:32.137Z,12.57
2019-03-28T15:49:38.198Z,12.50
2019-03-28T15:52:44.637Z,12.50
2019-03-28T15:55:50.708Z,12.45
2019-03-28T15:58:56.727Z,12.38
2019-03-28T16:02:02.627Z,12.34
2019-03-28T16:05:08.718Z,12.31
2019-03-28T16:08:14.658Z,12.26
2019-03-28T16:11:20.554Z,12.20
2019-03-28T16:14:27.526Z,12.11
2019-03-28T16:17:34.383Z,12.02
2019-03-28T16:20:40.313Z,11.96
2019-03-28T16:23:46.319Z,11.87
2019-03-28T16:26:54.087Z,11.79
2019-03-28T16:30:00.030Z,11.86
2019-03-28T16:33:06.164Z,11.79
2019-03-28T16:36:12.097Z,11.81
2019-03-28T16:39:18.012Z,11.74
2019-03-28T16:42:24.014Z,11.72
2019-03-28T16:45:29.893Z,11.63
2019-03-28T16:48:38.171Z,11.54
2019-03-28T16:51:44.063Z,11.51
2019-03-28T16:54:49.903Z,11.53
2019-03-28T16:57:55.883Z,11.51
2019-03-28T17:01:02.154Z,11.48
2019-03-28T17:04:20.197Z,11.36
2019-03-28T17:07:15.929Z,11.22
2019-03-28T17:10:43.663Z,11.15
2019-03-28T17:13:49.643Z,11.13
2019-03-28T17:16:55.583Z,11.08
2019-03-28T17:20:01.474Z,11.08
2019-03-28T17:23:07.433Z,10.97
2019-03-28T17:26:13.611Z,10.97
2019-03-28T17:29:19.654Z,10.90
2019-03-28T17:32:25.597Z,10.81
2019-03-28T17:35:31.555Z,10.78
2019-03-28T17:38:37.692Z,10.75
2019-03-28T17:41:43.620Z,10.68
2019-03-28T17:44:49.533Z,10.63
2019-03-28T17:47:55.454Z,10.55
2019-03-28T17:51:01.446Z,10.40
2019-03-28T17:54:07.407Z,10.27
2019-03-28T17:57:13.774Z,10.07
2019-03-28T18:00:20.087Z,9.90
2019-03-28T18:03:31.558Z,9.72
2019-03-28T18:06:36.846Z,9.54
2019-03-28T18:09:43.284Z,9.35
2019-03-28T18:12:49.251Z,9.17
2019-03-28T18:15:55.226Z,9.00
2019-03-28T18:19:02.353Z,8.82
2019-03-28T18:22:09.607Z,8.75
2019-03-28T18:25:15.728Z,8.70
2019-03-28T18:28:21.703Z,8.72
2019-03-28T18:31:27.584Z,8.73
2019-03-28T18:34:33.518Z,8.75
2019-03-28T18:37:39.518Z,8.76
2019-03-28T18:40:46.679Z,8.75
2019-03-28T18:43:53.791Z,8.74
2019-03-28T18:46:59.693Z,8.79
2019-03-28T18:50:06.462Z,8.81
2019-03-28T18:53:12.363Z,8.85
2019-03-28T18:56:18.286Z,8.78
2019-03-28T18:59:24.201Z,8.71
2019-03-28T19:02:30.131Z,8.75
2019-03-28T19:05:36.081Z,8.81
2019-03-28T19:08:41.956Z,8.82
2019-03-28T19:11:48.011Z,8.85
2019-03-28T19:14:53.965Z,8.89
2019-03-28T19:18:00.008Z,8.92
2019-03-28T19:21:06.261Z,8.97
2019-03-28T19:24:12.317Z,8.97
2019-03-28T19:27:19.266Z,8.94
2019-03-28T19:30:33.307Z,9.00
2019-03-28T19:33:39.214Z,9.01
2019-03-28T19:36:46.538Z,9.01
2019-03-28T19:39:52.482Z,9.07
2019-03-28T19:42:58.506Z,9.08
2019-03-28T19:46:04.417Z,9.07
2019-03-28T19:49:10.382Z,9.06
2019-03-28T19:52:16.357Z,9.08
2019-03-28T19:55:24.871Z,9.11
2019-03-28T19:58:31.019Z,9.16
2019-03-28T20:01:37.229Z,9.12
2019-03-28T20:04:43.177Z,9.15
2019-03-28T20:07:50.063Z,9.18
2019-03-28T20:10:56.257Z,9.23
2019-03-28T20:14:02.163Z,9.23
2019-03-28T20:17:08.084Z,9.29
2019-03-28T20:20:14.142Z,9.32
2019-03-28T20:23:20.018Z,9.49
2019-03-28T20:26:25.988Z,9.48
2019-03-28T20:29:33.344Z,9.44
2019-03-28T20:32:39.616Z,9.38
2019-03-28T20:35:45.600Z,9.39
2019-03-28T20:39:03.429Z,9.38
2019-03-28T20:41:59.166Z,9.50
2019-03-28T20:45:06.214Z,9.56
2019-03-28T20:48:12.233Z,9.50
2019-03-28T20:51:18.268Z,9.51
2019-03-28T20:54:24.264Z,9.53
2019-03-28T20:57:30.198Z,9.41
2019-03-28T21:00:40.552Z,9.32
2019-03-28T21:03:49.430Z,9.32
2019-03-28T21:06:54.196Z,9.26
2019-03-28T21:10:00.145Z,9.37
2019-03-28T21:13:06.182Z,9.34
2019-03-28T21:16:12.163Z,9.34
2019-03-28T21:19:18.923Z,9.33
2019-03-28T21:22:25.363Z,9.30
2019-03-28T21:25:31.198Z,9.26
2019-03-28T21:28:46.974Z,9.26
2019-03-28T21:31:49.967Z,9.22
2019-03-28T21:34:58.767Z,9.38
2019-03-28T21:38:17.021Z,9.42
2019-03-28T21:41:27.477Z,9.45
2019-03-28T21:44:48.888Z,9.54
2019-03-28T21:47:55.101Z,9.51
2019-03-28T21:51:01.198Z,9.42
2019-03-28T21:54:09.272Z,9.37
2019-03-28T21:57:15.226Z,9.35
2019-03-28T22:00:21.277Z,9.36
2019-03-28T22:03:27.383Z,9.30
2019-03-28T22:06:42.846Z,9.31
2019-03-28T22:09:42.242Z,9.29
2019-03-28T22:12:48.272Z,9.24
2019-03-28T22:15:54.175Z,9.27
2019-03-28T22:19:00.128Z,9.32
2019-03-28T22:22:06.016Z,9.31
2019-03-28T22:25:12.102Z,9.51
2019-03-28T22:28:18.343Z,9.57
2019-03-28T22:31:24.778Z,9.48
2019-03-28T22:34:34.005Z,9.41
2019-03-28T22:37:40.187Z,9.48
2019-03-28T22:40:46.163Z,9.41
2019-03-28T22:43:52.094Z,9.36
2019-03-28T22:47:00.606Z,9.35
2019-03-28T22:50:06.893Z,9.33
2019-03-28T22:53:12.847Z,9.30
2019-03-28T22:56:18.758Z,9.32
2019-03-28T22:59:24.633Z,9.35
2019-03-28T23:02:30.560Z,9.33
2019-03-28T23:05:36.405Z,9.33
2019-03-28T23:08:42.287Z,9.32
2019-03-28T23:11:48.157Z,9.32
2019-03-28T23:14:54.077Z,9.36
2019-03-28T23:18:00.010Z,9.49
2019-03-28T23:21:05.962Z,9.34
2019-03-28T23:24:11.845Z,9.29
2019-03-28T23:27:17.819Z,9.26
2019-03-28T23:30:23.853Z,9.26
2019-03-28T23:33:30.296Z,9.27
2019-03-28T23:36:39.897Z,9.32
2019-03-28T23:39:45.733Z,9.22
2019-03-28T23:42:51.641Z,9.16
2019-03-28T23:45:57.637Z,9.11
2019-03-28T23:49:03.547Z,9.10
2019-03-28T23:52:09.447Z,9.11
2019-03-28T23:55:16.785Z,9.12
2019-03-28T23:58:22.797Z,9.09
